Time,TemperatureF,DewpointF,PressureIn,WindDirection,WindDirectionDegrees,WindSpeedMPH,WindSpeedGustMPH,Humidity,HourlyPrecipIn,Conditions,Clouds,dailyrainin,SoftwareType,DateUTC
2013-08-02 00:07:00,56.6,53.0,29.75,SSE,163,0.0,3.0,88,0.00,,,0.00,weatherlink.com 1.10,2013-08-02 06:07:00,
2013-08-02 00:22:00,55.7,53.0,29.74,SW,215,0.0,4.0,90,0.00,,,0.00,weatherlink.com 1.10,2013-08-02 06:22:00,
2013-08-02 00:37:00,55.6,53.0,29.72,East,83,1.0,2.0,90,0.00,,,0.00,weatherlink.com 1.10,2013-08-02 06:37:00,
2013-08-02 00:52:00,55.5,52.0,29.72,NW,323,0.0,5.0,89,0.00,,,0.00,weatherlink.com 1.10,2013-08-02 06:52:00,
2013-08-02 01:07:00,54.2,52.0,29.70,NW,321,1.0,3.0,92,0.00,,,0.00,weatherlink.com 1.10,2013-08-02 07:07:00,
2013-08-02 01:22:00,54.2,51.0,29.69,NNW,346,5.0,10.0,90,0.00,,,0.00,weatherlink.com 1.10,2013-08-02 07:22:00,
2013-08-02 01:37:00,54.8,51.0,29.70,NNE,18,7.0,11.0,87,0.01,,,0.01,weatherlink.com 1.10,2013-08-02 07:37:00,
2013-08-02 01:52:00,54.5,50.0,29.70,NNE,29,9.0,12.0,86,0.01,,,0.01,weatherlink.com 1.10,2013-08-02 07:52:00,
2013-08-02 02:07:00,55.1,51.0,29.70,NE,38,9.0,15.0,86,0.01,,,0.01,weatherlink.com 1.10,2013-08-02 08:07:00,
2013-08-02 02:22:00,54.7,51.0,29.70,NW,307,0.0,8.0,87,0.01,,,0.01,weatherlink.com 1.10,2013-08-02 08:22:00,
2013-08-02 02:37:00,53.2,50.0,29.72,North,350,3.0,8.0,88,0.00,,,0.01,weatherlink.com 1.10,2013-08-02 08:37:00,
2013-08-02 02:52:00,53.3,50.0,29.73,NNE,19,6.0,7.0,89,0.00,,,0.01,weatherlink.com 1.10,2013-08-02 08:52:00,
2013-08-02 03:07:00,53.3,50.0,29.73,NE,55,7.0,10.0,87,0.00,,,0.01,weatherlink.com 1.10,2013-08-02 09:07:00,
2013-08-02 03:22:00,53.7,50.0,29.74,North,351,6.0,10.0,86,0.00,,,0.01,weatherlink.com 1.10,2013-08-02 09:22:00,
2013-08-02 03:37:00,52.8,49.0,29.75,North,355,4.0,8.0,88,0.00,,,0.01,weatherlink.com 1.10,2013-08-02 09:37:00,
2013-08-02 03:52:00,52.6,50.0,29.76,NNW,346,2.0,5.0,89,0.00,,,0.01,weatherlink.com 1.10,2013-08-02 09:52:00,
2013-08-02 04:07:00,52.7,50.0,29.76,North,10,3.0,6.0,89,0.00,,,0.01,weatherlink.com 1.10,2013-08-02 10:07:00,
2013-08-02 04:22:00,52.6,50.0,29.76,NNE,15,5.0,6.0,89,0.00,,,0.01,weatherlink.com 1.10,2013-08-02 10:22:00,
2013-08-02 04:37:00,53.2,50.0,29.77,North,350,4.0,8.0,88,0.00,,,0.01,weatherlink.com 1.10,2013-08-02 10:37:00,
2013-08-02 04:52:00,53.4,50.0,29.77,NNW,348,0.0,5.0,89,0.00,,,0.01,weatherlink.com 1.10,2013-08-02 10:52:00,
2013-08-02 05:07:00,52.8,50.0,29.77,NNW,342,0.0,1.0,89,0.00,,,0.01,weatherlink.com 1.10,2013-08-02 11:07:00,
2013-08-02 05:22:00,52.1,50.0,29.78,ESE,113,1.0,3.0,92,0.00,,,0.01,weatherlink.com 1.10,2013-08-02 11:22:00,
2013-08-02 05:37:00,52.7,50.0,29.77,East,98,0.0,7.0,90,0.00,,,0.01,weatherlink.com 1.10,2013-08-02 11:37:00,
2013-08-02 05:52:00,51.7,49.0,29.77,SSW,202,1.0,5.0,91,0.00,,,0.01,weatherlink.com 1.10,2013-08-02 11:52:00,
2013-08-02 06:07:00,51.1,49.0,29.78,SW,226,0.0,4.0,91,0.00,,,0.01,weatherlink.com 1.10,2013-08-02 12:07:00,
2013-08-02 06:22:00,51.0,49.0,29.78,SSE,155,1.0,5.0,93,0.00,,,0.01,weatherlink.com 1.10,2013-08-02 12:22:00,
2013-08-02 06:37:00,50.9,49.0,29.78,SSW,206,0.0,3.0,93,0.00,,,0.01,weatherlink.com 1.10,2013-08-02 12:37:00,
2013-08-02 06:52:00,51.0,49.0,29.78,ENE,61,0.0,4.0,93,0.00,,,0.01,weatherlink.com 1.10,2013-08-02 12:52:00,
2013-08-02 07:07:00,51.2,49.0,29.79,NNW,345,3.0,4.0,93,0.00,,,0.01,weatherlink.com 1.10,2013-08-02 13:07:00,
2013-08-02 07:22:00,51.3,49.0,29.80,NNW,340,0.0,0.0,93,0.00,,,0.01,weatherlink.com 1.10,2013-08-02 13:22:00,
2013-08-02 07:37:00,51.5,50.0,29.81,NNW,340,0.0,0.0,93,0.00,,,0.01,weatherlink.com 1.10,2013-08-02 13:37:00,
2013-08-02 07:52:00,51.7,50.0,29.81,West,261,2.0,3.0,92,0.00,,,0.01,weatherlink.com 1.10,2013-08-02 13:52:00,
2013-08-02 08:07:00,51.8,50.0,29.82,West,261,0.0,0.0,93,0.00,,,0.01,weatherlink.com 1.10,2013-08-02 14:07:00,
2013-08-02 08:22:00,51.8,50.0,29.82,South,190,0.0,4.0,93,0.00,,,0.01,weatherlink.com 1.10,2013-08-02 14:22:00,
2013-08-02 08:38:00,51.9,50.0,29.82,SSE,151,0.0,4.0,92,0.00,,,0.01,weatherlink.com 1.10,2013-08-02 14:38:00,
2013-08-02 08:53:00,52.0,50.0,29.83,South,178,0.0,3.0,91,0.00,,,0.01,weatherlink.com 1.10,2013-08-02 14:53:00,
2013-08-02 09:07:00,52.2,50.0,29.83,SSW,202,0.0,3.0,92,0.00,,,0.01,weatherlink.com 1.10,2013-08-02 15:07:00,
2013-08-02 09:22:00,52.7,50.0,29.84,SE,141,2.0,5.0,91,0.00,,,0.01,weatherlink.com 1.10,2013-08-02 15:22:00,
2013-08-02 09:38:00,53.1,51.0,29.84,SE,134,0.0,4.0,91,0.00,,,0.01,weatherlink.com 1.10,2013-08-02 15:38:00,
2013-08-02 09:53:00,53.5,50.0,29.84,SE,134,0.0,1.0,89,0.00,,,0.01,weatherlink.com 1.10,2013-08-02 15:53:00,
2013-08-02 10:08:00,54.0,51.0,29.84,SE,134,0.0,0.0,89,0.00,,,0.01,weatherlink.com 1.10,2013-08-02 16:08:00,
2013-08-02 10:23:00,54.6,51.0,29.85,SE,134,0.0,0.0,87,0.00,,,0.01,weatherlink.com 1.10,2013-08-02 16:23:00,
2013-08-02 10:38:00,55.3,51.0,29.84,ESE,107,1.0,4.0,86,0.00,,,0.01,weatherlink.com 1.10,2013-08-02 16:38:00,
2013-08-02 10:53:00,55.7,52.0,29.85,ESE,107,0.0,0.0,86,0.00,,,0.01,weatherlink.com 1.10,2013-08-02 16:53:00,
2013-08-02 11:08:00,56.1,51.0,29.85,ESE,107,0.0,2.0,84,0.00,,,0.01,weatherlink.com 1.10,2013-08-02 17:08:00,
2013-08-02 11:23:00,56.5,51.0,29.85,ESE,107,0.0,0.0,82,0.00,,,0.01,weatherlink.com 1.10,2013-08-02 17:23:00,
2013-08-02 11:38:00,57.3,52.0,29.85,ESE,107,0.0,0.0,81,0.00,,,0.01,weatherlink.com 1.10,2013-08-02 17:38:00,
2013-08-02 11:53:00,57.6,52.0,29.85,WNW,282,0.0,4.0,81,0.00,,,0.01,weatherlink.com 1.10,2013-08-02 17:53:00,
2013-08-02 12:08:00,58.7,54.0,29.85,NW,308,2.0,3.0,83,0.00,,,0.01,weatherlink.com 1.10,2013-08-02 18:08:00,
2013-08-02 12:23:00,60.4,55.0,29.85,WNW,291,0.0,6.0,81,0.00,,,0.01,weatherlink.com 1.10,2013-08-02 18:23:00,
2013-08-02 12:38:00,61.5,54.0,29.85,WNW,288,0.0,5.0,77,0.00,,,0.01,weatherlink.com 1.10,2013-08-02 18:38:00,
2013-08-02 12:53:00,62.3,55.0,29.85,WNW,288,1.0,5.0,76,0.00,,,0.01,weatherlink.com 1.10,2013-08-02 18:53:00,
2013-08-02 13:08:00,61.8,55.0,29.86,West,279,0.0,3.0,78,0.00,,,0.01,weatherlink.com 1.10,2013-08-02 19:08:00,
2013-08-02 13:23:00,62.6,55.0,29.85,West,279,0.0,0.0,77,0.00,,,0.01,weatherlink.com 1.10,2013-08-02 19:23:00,
2013-08-02 13:38:00,63.3,55.0,29.85,West,279,0.0,4.0,74,0.00,,,0.01,weatherlink.com 1.10,2013-08-02 19:38:00,
2013-08-02 13:53:00,65.0,55.0,29.86,West,279,4.0,4.0,69,0.00,,,0.01,weatherlink.com 1.10,2013-08-02 19:53:00,
2013-08-02 14:08:00,67.3,51.0,29.85,ESE,113,3.0,6.0,57,0.00,,,0.01,weatherlink.com 1.10,2013-08-02 20:08:00,
2013-08-02 14:23:00,68.6,54.0,29.85,South,183,4.0,8.0,59,0.00,,,0.01,weatherlink.com 1.10,2013-08-02 20:23:00,
2013-08-02 14:38:00,69.4,52.0,29.84,West,277,4.0,5.0,54,0.00,,,0.01,weatherlink.com 1.10,2013-08-02 20:38:00,
2013-08-02 14:54:00,69.4,50.0,29.84,NW,311,3.0,6.0,50,0.00,,,0.01,weatherlink.com 1.10,2013-08-02 20:54:00,
2013-08-02 15:09:00,68.5,52.0,29.84,NW,306,1.0,5.0,56,0.00,,,0.01,weatherlink.com 1.10,2013-08-02 21:09:00,
2013-08-02 15:24:00,68.3,55.0,29.84,WNW,282,6.0,13.0,63,0.00,,,0.01,weatherlink.com 1.10,2013-08-02 21:24:00,
2013-08-02 15:39:00,67.9,55.0,29.85,WNW,284,1.0,6.0,63,0.00,,,0.01,weatherlink.com 1.10,2013-08-02 21:39:00,
2013-08-02 15:54:00,67.0,53.0,29.85,NNW,341,3.0,11.0,62,0.00,,,0.01,weatherlink.com 1.10,2013-08-02 21:54:00,
2013-08-02 16:09:00,65.9,53.0,29.85,NNW,338,8.0,14.0,63,0.00,,,0.01,weatherlink.com 1.10,2013-08-02 22:09:00,
2013-08-02 16:24:00,67.7,54.0,29.84,North,355,8.0,15.0,61,0.00,,,0.01,weatherlink.com 1.10,2013-08-02 22:24:00,
2013-08-02 16:39:00,68.4,55.0,29.85,NNW,331,14.0,15.0,63,0.00,,,0.01,weatherlink.com 1.10,2013-08-02 22:39:00,
2013-08-02 16:53:00,67.8,53.0,29.84,North,5,12.0,18.0,59,0.00,,,0.01,weatherlink.com 1.10,2013-08-02 22:53:00,
2013-08-02 17:09:00,69.6,52.0,29.83,NW,310,0.0,10.0,54,0.00,,,0.01,weatherlink.com 1.10,2013-08-02 23:09:00,
2013-08-02 17:23:00,69.2,52.0,29.83,WNW,294,3.0,12.0,54,0.00,,,0.01,weatherlink.com 1.10,2013-08-02 23:23:00,
2013-08-02 17:39:00,69.2,53.0,29.83,WNW,291,9.0,15.0,56,0.00,,,0.01,weatherlink.com 1.10,2013-08-02 23:39:00,
2013-08-02 17:54:00,69.0,52.0,29.83,NW,318,8.0,15.0,56,0.00,,,0.01,weatherlink.com 1.10,2013-08-02 23:54:00,
2013-08-02 18:09:00,69.6,53.0,29.83,WNW,300,5.0,11.0,55,0.00,,,0.01,weatherlink.com 1.10,2013-08-03 00:09:00,
2013-08-02 18:24:00,68.7,53.0,29.83,NW,310,6.0,15.0,57,0.00,,,0.01,weatherlink.com 1.10,2013-08-03 00:24:00,
2013-08-02 18:39:00,67.6,52.0,29.83,West,271,6.0,15.0,58,0.00,,,0.01,weatherlink.com 1.10,2013-08-03 00:39:00,
2013-08-02 18:54:00,67.8,53.0,29.84,WNW,284,4.0,13.0,59,0.00,,,0.01,weatherlink.com 1.10,2013-08-03 00:54:00,
2013-08-02 19:09:00,67.3,52.0,29.83,NNW,335,7.0,11.0,59,0.00,,,0.01,weatherlink.com 1.10,2013-08-03 01:09:00,
2013-08-02 19:24:00,66.5,52.0,29.83,NNW,336,7.0,8.0,60,0.00,,,0.01,weatherlink.com 1.10,2013-08-03 01:24:00,
2013-08-02 19:39:00,67.1,52.0,29.84,NNW,331,6.0,10.0,58,0.00,,,0.01,weatherlink.com 1.10,2013-08-03 01:39:00,
2013-08-02 19:54:00,66.6,52.0,29.85,NNW,333,6.0,7.0,60,0.00,,,0.01,weatherlink.com 1.10,2013-08-03 01:54:00,
2013-08-02 20:09:00,65.5,52.0,29.85,NNW,332,6.0,12.0,63,0.01,,,0.02,weatherlink.com 1.10,2013-08-03 02:09:00,
2013-08-02 20:24:00,65.5,52.0,29.85,North,360,7.0,13.0,61,0.01,,,0.02,weatherlink.com 1.10,2013-08-03 02:24:00,
2013-08-02 20:39:00,65.5,52.0,29.86,North,5,10.0,11.0,61,0.01,,,0.02,weatherlink.com 1.10,2013-08-03 02:39:00,
2013-08-02 20:54:00,65.0,52.0,29.85,North,5,11.0,16.0,62,0.01,,,0.02,weatherlink.com 1.10,2013-08-03 02:54:00,
2013-08-02 21:09:00,64.3,51.0,29.86,North,360,9.0,13.0,62,0.00,,,0.02,weatherlink.com 1.10,2013-08-03 03:09:00,
2013-08-02 21:24:00,63.8,51.0,29.87,NNE,28,4.0,10.0,64,0.00,,,0.02,weatherlink.com 1.10,2013-08-03 03:24:00,
2013-08-02 21:39:00,62.6,51.0,29.88,North,9,3.0,8.0,66,0.00,,,0.02,weatherlink.com 1.10,2013-08-03 03:39:00,
2013-08-02 21:54:00,62.0,51.0,29.88,NNE,27,6.0,9.0,67,0.00,,,0.02,weatherlink.com 1.10,2013-08-03 03:54:00,
2013-08-02 22:09:00,62.7,51.0,29.88,NE,47,5.0,9.0,65,0.00,,,0.02,weatherlink.com 1.10,2013-08-03 04:09:00,
2013-08-02 22:24:00,62.2,51.0,29.89,NNW,344,3.0,9.0,67,0.00,,,0.02,weatherlink.com 1.10,2013-08-03 04:24:00,
2013-08-02 22:39:00,60.1,51.0,29.89,North,360,5.0,6.0,71,0.00,,,0.02,weatherlink.com 1.10,2013-08-03 04:39:00,
2013-08-02 22:54:00,59.7,51.0,29.89,NNW,333,3.0,5.0,73,0.00,,,0.02,weatherlink.com 1.10,2013-08-03 04:54:00,
2013-08-02 23:09:00,58.6,51.0,29.89,NNW,334,5.0,7.0,75,0.00,,,0.02,weatherlink.com 1.10,2013-08-03 05:09:00,
2013-08-02 23:24:00,59.2,51.0,29.89,NNW,328,7.0,11.0,73,0.00,,,0.02,weatherlink.com 1.10,2013-08-03 05:24:00,
2013-08-02 23:39:00,58.5,50.0,29.89,NNW,339,8.0,10.0,74,0.00,,,0.02,weatherlink.com 1.10,2013-08-03 05:39:00,
2013-08-02 23:54:00,58.0,50.0,29.90,NNW,333,8.0,9.0,75,0.00,,,0.02,weatherlink.com 1.10,2013-08-03 05:54:00,